LIBFLIBD

Guest
Details From LIBF - Foggia Gino Lisa
To LIBD - Bari Palese Macchie
Flight Number -
Tags generated
Created
Modified
Stats Distance 60 nm / 110 km
Max Altitude 100 ft / 30 m
Waypoints 3
Social Downloads 5
Likes 0
Share VATSIM

Download

Looking for another format? Having issues loading an existing format? Contact us
Advertisement - Login to hide

Notes

Basic altitude profile: - Ascent Rate: 2500ft/min - Ascent Speed: 180kts - Cruise Altitude: 35000ft - Cruise Speed: 200kts - Descent Rate: 1500ft/min - Descent Speed: 180kts Options: - Use NATs: yes - Use PACOTS: yes - Use low airways: yes - Use high airways: no

Route

LIBF BAR LIBD

ID Type Via Altitude Latitude Longitude Leg Dist Tot Dist Heading (true) Name
O LIBF APT - 0 ft / 0 m 41.43362˚ 15.53462˚ - 0 nm - Foggia Gino Lisa
BAR VOR - 100 ft / 30 m 41.14417˚ 16.77638˚ 58 nm 58 nm 107° / 108° BARI VOR-DME
O LIBD APT - 0 ft / 0 m 41.13787˚ 16.75832˚ 0 nm 59 nm 245° / 245° Bari Palese Macchie

Altitude Profile

Advertisement - Login to hide

LIBF

Details ICAO LIBF (FOG)
Name Foggia Gino Lisa
Region Italy
Timezone Europe/Rome (UTC+2.0)
Stats Elevation 265 ft / 81 m (AMSL)
Location 41.433617° 15.534615°
Runways 1
Magnetic Variation 3.600° E

METAR

LIBF 231250Z 29004KT 250V010 9999 FEW015 BKN050 20/16 Q1014

Decode

TAF

Not found

Departure Runways

ID Width Length Bearing (true) Bearing (mag) Surface Threshold Offset Overrun Length
15 148 ft / 45 m 4,540 ft / 1,384 m 156.64° 153.04° Concrete 0 ft / 0 m 0 ft / 0 m
33 148 ft / 45 m 4,540 ft / 1,384 m 336.64° 333.04° Concrete 0 ft / 0 m 0 ft / 0 m

LIBD

Details ICAO LIBD (BRI)
Name Bari Palese Macchie
Region Italy
Timezone Europe/Rome (UTC+2.0)
Stats Elevation 177 ft / 54 m (AMSL)
Location 41.137865° 16.758318°
Runways 1
Magnetic Variation 3.782° E

METAR

LIBD 231250Z 04008KT 010V070 9999 FEW010 BKN030 19/17 Q1014

Decode

TAF

TAF LIBD 231100Z 2312/2412 14012KT 9999 FEW030 TEMPO 2312/2318 4000 TSRA TEMPO 2318/2320 4000 SHRA BECMG 2321/2323 33010KT

Decode

Destination Runways

ID Width Length Bearing (true) Bearing (mag) Surface Threshold Offset Overrun Length
07 148 ft / 45 m 9,262 ft / 2,823 m 69.39° 65.61° Asphalt 1,257 ft / 383 m 0 ft / 0 m
25 148 ft / 45 m 9,262 ft / 2,823 m 249.42° 245.64° Asphalt 0 ft / 0 m 194 ft / 59 m

Approach Navaids

Runway Type Ident Frequency Range Bearing (true) Bearing (mag) Slope Elevation
07 Localiser BAP 111.35 MHz 18 nm / 33 km 69.25° 65.47° - 177 ft / 54 m (AMSL)
07 Glidescope BAP 111.35 MHz 10 nm / 19 km 69.25° 65.47° 3.32° 177 ft / 54 m (AMSL)
07 DME BAP 111.35 MHz 18 nm / 33 km - - - 183 ft / 56 m (AMSL)

Popular Alternatives